createdAt,value
2023-03-20T00:02:21.818Z,27.11
2023-03-20T00:06:21.798Z,27.09
2023-03-20T00:10:22.051Z,27.10
2023-03-20T00:14:22.019Z,27.11
2023-03-20T00:18:22.124Z,27.17
2023-03-20T00:22:22.302Z,27.17
2023-03-20T00:26:22.381Z,27.12
2023-03-20T00:30:22.441Z,27.12
2023-03-20T00:34:22.630Z,27.18
2023-03-20T00:38:22.707Z,27.20
2023-03-20T00:42:22.829Z,27.17
2023-03-20T00:46:23.678Z,27.21
2023-03-20T00:50:23.031Z,27.22
2023-03-20T00:54:23.122Z,27.21
2023-03-20T00:58:23.325Z,27.22
2023-03-20T01:02:23.446Z,27.19
2023-03-20T01:06:23.525Z,27.26
2023-03-20T01:10:23.650Z,27.25
2023-03-20T01:14:23.823Z,27.19
2023-03-20T01:18:24.053Z,27.21
2023-03-20T01:22:24.242Z,27.29
2023-03-20T01:26:24.354Z,27.28
2023-03-20T01:30:24.508Z,27.28
2023-03-20T01:34:24.632Z,27.26
2023-03-20T01:38:24.813Z,27.29
2023-03-20T01:42:24.957Z,27.29
2023-03-20T01:46:25.243Z,27.28
2023-03-20T01:50:25.221Z,27.35
2023-03-20T01:54:25.285Z,27.29
2023-03-20T01:58:25.413Z,27.35
2023-03-20T02:02:25.603Z,27.32
2023-03-20T02:06:25.729Z,27.35
2023-03-20T02:10:25.846Z,27.32
2023-03-20T02:14:25.955Z,27.36
2023-03-20T02:18:26.196Z,27.35
2023-03-20T02:22:26.209Z,27.36
2023-03-20T02:26:26.458Z,27.40
2023-03-20T02:30:26.582Z,27.39
2023-03-20T02:34:26.779Z,27.35
2023-03-20T02:38:26.881Z,27.33
2023-03-20T02:42:27.087Z,27.39
2023-03-20T02:46:27.150Z,27.39
2023-03-20T02:50:27.032Z,27.37
2023-03-20T02:54:27.174Z,27.39
2023-03-20T02:58:27.008Z,27.40
2023-03-20T03:02:26.941Z,27.38
2023-03-20T03:06:26.889Z,27.38
2023-03-20T03:10:26.895Z,27.41
2023-03-20T03:14:26.842Z,27.43
2023-03-20T03:18:26.809Z,27.43
2023-03-20T03:22:26.726Z,27.37
2023-03-20T03:26:26.803Z,27.43
2023-03-20T03:30:26.657Z,27.45
2023-03-20T03:34:27.136Z,27.44
2023-03-20T03:38:27.690Z,27.44
2023-03-20T03:42:26.984Z,27.48
2023-03-20T03:46:27.267Z,27.49
2023-03-20T03:50:27.295Z,27.47
2023-03-20T03:54:27.478Z,27.48
2023-03-20T03:58:27.770Z,27.46
2023-03-20T04:02:27.875Z,27.51
2023-03-20T04:06:28.005Z,27.48
2023-03-20T04:10:28.203Z,27.45
2023-03-20T04:14:28.664Z,27.51
2023-03-20T04:18:28.546Z,27.49
2023-03-20T04:22:28.742Z,27.47
2023-03-20T04:26:28.884Z,27.51
2023-03-20T04:30:29.077Z,27.52
2023-03-20T04:34:29.290Z,27.49
2023-03-20T04:38:29.519Z,27.55
2023-03-20T04:42:29.700Z,27.52
2023-03-20T04:46:29.923Z,27.56
2023-03-20T04:50:30.097Z,27.63
2023-03-20T04:54:30.276Z,27.56
2023-03-20T04:58:30.494Z,27.56
2023-03-20T05:02:30.696Z,27.62
2023-03-20T05:06:30.906Z,27.59
2023-03-20T05:10:31.086Z,27.64
2023-03-20T05:14:31.748Z,27.64
2023-03-20T05:18:31.539Z,27.63
2023-03-20T05:22:31.784Z,27.71
2023-03-20T05:26:31.937Z,27.73
2023-03-20T05:30:32.150Z,27.59
2023-03-20T05:34:32.189Z,27.53
2023-03-20T05:38:32.300Z,27.47
2023-03-20T05:42:32.402Z,27.45
2023-03-20T05:46:32.501Z,27.42
2023-03-20T05:50:32.562Z,27.33
2023-03-20T05:54:32.668Z,27.28
2023-03-20T05:58:32.662Z,27.28
2023-03-20T06:02:32.724Z,27.22
2023-03-20T06:06:32.659Z,27.21
2023-03-20T06:10:32.679Z,27.16
2023-03-20T06:14:32.676Z,27.17
2023-03-20T06:18:32.723Z,27.20
2023-03-20T06:22:32.729Z,27.33
2023-03-20T06:26:32.781Z,27.34
2023-03-20T06:30:38.179Z,27.39
2023-03-20T06:34:32.808Z,27.98
2023-03-20T06:38:32.734Z,29.29
2023-03-20T06:42:33.207Z,29.29
2023-03-20T06:46:32.856Z,30.67
2023-03-20T06:50:32.670Z,32.48
2023-03-20T06:54:33.012Z,33.41
2023-03-20T06:58:32.633Z,33.75
2023-03-20T07:02:32.450Z,34.43
2023-03-20T07:06:32.427Z,35.09
2023-03-20T07:10:44.888Z,34.67
2023-03-20T07:14:34.839Z,35.13
2023-03-20T07:18:34.672Z,35.56
2023-03-20T07:22:38.974Z,35.66
2023-03-20T07:26:32.356Z,35.90
2023-03-20T07:30:32.258Z,36.10
2023-03-20T07:34:33.264Z,36.16
2023-03-20T07:38:32.609Z,36.17
2023-03-20T07:42:32.353Z,35.12
2023-03-20T07:46:32.038Z,33.63
2023-03-20T07:50:32.078Z,32.97
2023-03-20T07:54:32.017Z,32.95
2023-03-20T07:58:31.973Z,32.50
2023-03-20T08:02:32.137Z,32.66
2023-03-20T08:06:32.184Z,33.45
2023-03-20T08:10:32.194Z,33.01
2023-03-20T08:14:32.262Z,33.11
2023-03-20T08:18:32.302Z,33.28
2023-03-20T08:22:32.375Z,33.15
2023-03-20T08:26:32.766Z,33.11
2023-03-20T08:30:32.524Z,33.17
2023-03-20T08:34:32.597Z,33.64
2023-03-20T08:38:33.353Z,33.68
2023-03-20T08:42:33.501Z,33.67
2023-03-20T08:46:32.996Z,33.94
2023-03-20T08:50:32.791Z,34.07
2023-03-20T08:54:34.825Z,34.45
2023-03-20T08:58:32.693Z,34.76
2023-03-20T09:02:33.022Z,34.83
2023-03-20T09:06:32.845Z,34.94
2023-03-20T09:10:32.827Z,34.98
2023-03-20T09:14:35.743Z,34.91
2023-03-20T09:18:32.815Z,34.88
2023-03-20T09:22:33.452Z,35.18
2023-03-20T09:26:32.681Z,34.87
2023-03-20T09:30:32.630Z,34.20
2023-03-20T09:34:32.601Z,33.76
2023-03-20T09:38:32.587Z,33.56
2023-03-20T09:42:32.537Z,33.34
2023-03-20T09:46:33.639Z,33.94
2023-03-20T09:50:32.695Z,33.42
2023-03-20T09:54:43.529Z,33.19
2023-03-20T09:58:33.561Z,32.86
2023-03-20T10:02:32.497Z,32.71
2023-03-20T10:06:32.617Z,32.51
2023-03-20T10:10:32.707Z,32.24
2023-03-20T10:14:32.729Z,32.02
2023-03-20T10:18:32.655Z,32.22
2023-03-20T10:22:32.679Z,32.02
2023-03-20T10:26:32.759Z,31.86
2023-03-20T10:30:32.921Z,32.15
2023-03-20T10:34:32.833Z,32.19
2023-03-20T10:38:32.907Z,31.99
2023-03-20T10:42:32.844Z,31.81
2023-03-20T10:46:33.417Z,31.67
2023-03-20T10:50:33.080Z,31.53
2023-03-20T10:54:33.877Z,31.45
2023-03-20T10:58:33.274Z,31.38
2023-03-20T11:02:33.315Z,31.40
2023-03-20T11:06:33.440Z,31.39
2023-03-20T11:10:33.789Z,31.36
2023-03-20T11:14:33.596Z,31.35
2023-03-20T11:18:33.885Z,31.31
2023-03-20T11:22:35.018Z,31.27
2023-03-20T11:26:33.878Z,31.28
2023-03-20T11:30:34.061Z,31.98
2023-03-20T11:34:34.533Z,31.97
2023-03-20T11:38:34.189Z,32.08
2023-03-20T11:42:34.453Z,31.99
2023-03-20T11:46:34.500Z,32.01
2023-03-20T11:50:34.729Z,32.03
2023-03-20T11:54:34.484Z,31.97
2023-03-20T11:58:34.532Z,32.00
2023-03-20T12:02:34.539Z,31.99
2023-03-20T12:06:34.476Z,31.93
2023-03-20T12:10:34.681Z,31.86
2023-03-20T12:14:34.423Z,31.91
2023-03-20T12:18:34.623Z,31.84
2023-03-20T12:22:34.414Z,31.86
2023-03-20T12:26:34.379Z,31.84
2023-03-20T12:30:34.644Z,31.83
2023-03-20T12:34:34.339Z,31.76
2023-03-20T12:38:34.357Z,31.71
2023-03-20T12:42:34.408Z,31.67
2023-03-20T12:46:34.383Z,31.60
2023-03-20T12:50:34.504Z,31.54
2023-03-20T12:54:34.329Z,31.56
2023-03-20T12:58:34.330Z,31.49
2023-03-20T13:02:34.358Z,31.42
2023-03-20T13:06:34.309Z,31.41
2023-03-20T13:10:34.611Z,31.32
2023-03-20T13:14:34.291Z,31.28
2023-03-20T13:18:34.281Z,31.27
2023-03-20T13:22:34.294Z,31.21
2023-03-20T13:26:34.369Z,31.16
2023-03-20T13:30:34.643Z,31.22
2023-03-20T13:34:34.314Z,31.18
2023-03-20T13:38:34.283Z,31.17
2023-03-20T13:42:34.305Z,31.16
2023-03-20T13:46:34.300Z,31.14
2023-03-20T13:50:34.671Z,31.11
2023-03-20T13:54:34.334Z,31.17
2023-03-20T13:58:34.201Z,31.12
2023-03-20T14:02:34.280Z,31.21
2023-03-20T14:06:34.400Z,31.12
2023-03-20T14:10:34.347Z,31.15
2023-03-20T14:14:34.344Z,31.13
2023-03-20T14:18:34.206Z,31.16
2023-03-20T14:22:34.263Z,31.11
2023-03-20T14:26:34.358Z,31.18
2023-03-20T14:30:34.543Z,31.13
2023-03-20T14:34:34.346Z,31.09
2023-03-20T14:38:34.352Z,31.16
2023-03-20T14:42:34.386Z,31.14
2023-03-20T14:46:34.469Z,31.11
2023-03-20T14:50:34.792Z,31.07
2023-03-20T14:54:34.546Z,31.07
2023-03-20T14:58:34.576Z,31.06
2023-03-20T15:02:34.830Z,30.96
2023-03-20T15:06:34.746Z,31.03
2023-03-20T15:10:35.300Z,31.02
2023-03-20T15:14:34.786Z,31.00
2023-03-20T15:18:34.857Z,30.94
2023-03-20T15:22:34.927Z,30.98
2023-03-20T15:26:35.020Z,31.05
2023-03-20T15:30:35.406Z,31.02
2023-03-20T15:34:35.189Z,31.00
2023-03-20T15:38:35.232Z,31.05
2023-03-20T15:42:35.303Z,31.07
2023-03-20T15:46:35.381Z,31.03
2023-03-20T15:50:35.816Z,31.06
2023-03-20T15:54:35.525Z,31.02
2023-03-20T15:58:35.608Z,31.08
2023-03-20T16:02:35.639Z,31.05
2023-03-20T16:06:35.801Z,31.03
2023-03-20T16:10:36.224Z,31.02
2023-03-20T16:14:35.999Z,30.98
2023-03-20T16:18:35.998Z,31.00
2023-03-20T16:22:36.136Z,30.95
2023-03-20T16:26:36.274Z,30.99
2023-03-20T16:30:37.012Z,31.00
2023-03-20T16:34:36.504Z,30.94
2023-03-20T16:38:36.652Z,30.99
2023-03-20T16:42:36.754Z,30.90
2023-03-20T16:46:36.971Z,30.99
2023-03-20T16:50:37.220Z,30.93
2023-03-20T16:54:37.152Z,30.92
2023-03-20T16:58:37.358Z,30.94
2023-03-20T17:02:37.437Z,30.97
2023-03-20T17:06:37.598Z,31.01
2023-03-20T17:10:38.325Z,30.96
2023-03-20T17:14:37.941Z,31.32
2023-03-20T17:18:38.020Z,31.62
2023-03-20T17:22:38.195Z,31.48
2023-03-20T17:26:38.596Z,31.50
2023-03-20T17:30:38.966Z,31.51
2023-03-20T17:34:38.712Z,31.46
2023-03-20T17:38:38.830Z,31.48
2023-03-20T17:42:39.062Z,31.47
2023-03-20T17:46:56.196Z,31.44
2023-03-20T17:50:40.221Z,31.38
2023-03-20T17:54:39.070Z,31.39
2023-03-20T17:58:39.187Z,31.32
2023-03-20T18:02:39.366Z,31.38
2023-03-20T18:06:39.616Z,31.36
2023-03-20T18:10:40.289Z,31.32
2023-03-20T18:14:39.969Z,31.35
2023-03-20T18:18:40.183Z,31.32
2023-03-20T18:22:40.536Z,31.26
2023-03-20T18:26:40.642Z,31.31
2023-03-20T18:30:40.755Z,31.27
2023-03-20T18:34:40.585Z,31.27
2023-03-20T18:38:40.449Z,31.20
2023-03-20T18:42:40.492Z,31.21
2023-03-20T18:46:40.426Z,31.15
2023-03-20T18:50:40.674Z,31.12
2023-03-20T18:54:40.340Z,31.07
2023-03-20T18:58:40.380Z,31.08
2023-03-20T19:02:40.251Z,31.05
2023-03-20T19:06:40.270Z,31.03
2023-03-20T19:10:40.363Z,31.01
2023-03-20T19:14:40.176Z,31.00
2023-03-20T19:18:40.255Z,31.04
2023-03-20T19:22:40.097Z,31.03
2023-03-20T19:26:40.082Z,30.93
2023-03-20T19:30:40.216Z,31.00
2023-03-20T19:35:28.232Z,31.00
2023-03-20T19:38:41.018Z,30.95
2023-03-20T19:42:59.816Z,30.95
2023-03-20T19:46:42.042Z,30.96
2023-03-20T19:50:41.649Z,30.95
2023-03-20T19:54:41.829Z,30.94
2023-03-20T19:58:40.869Z,30.92
2023-03-20T20:02:39.962Z,30.91
2023-03-20T20:06:41.745Z,30.90
2023-03-20T20:10:40.226Z,30.84
2023-03-20T20:14:40.364Z,30.78
2023-03-20T20:18:40.373Z,30.77
2023-03-20T20:22:40.425Z,30.76
2023-03-20T20:26:49.428Z,30.77
2023-03-20T20:30:41.473Z,30.77
2023-03-20T20:35:30.646Z,30.74
2023-03-20T20:38:50.396Z,30.73
2023-03-20T20:42:41.389Z,30.72
2023-03-20T20:46:40.342Z,30.73
2023-03-20T20:50:40.352Z,30.71
2023-03-20T20:54:40.283Z,30.71
2023-03-20T20:58:40.199Z,30.74
2023-03-20T21:02:40.755Z,30.70
2023-03-20T21:07:06.286Z,30.68
2023-03-20T21:10:41.125Z,30.65
2023-03-20T21:14:40.083Z,30.67
2023-03-20T21:18:40.150Z,30.64
2023-03-20T21:22:39.988Z,30.65
2023-03-20T21:26:39.957Z,30.62
2023-03-20T21:30:46.743Z,30.64
2023-03-20T21:34:41.686Z,30.61
2023-03-20T21:39:09.610Z,30.59
2023-03-20T21:42:40.979Z,30.61
2023-03-20T21:47:10.326Z,30.61
2023-03-20T21:51:07.277Z,30.59
2023-03-20T21:59:38.342Z,30.55
2023-03-20T22:02:43.514Z,30.55
2023-03-20T22:35:27.607Z,30.51
2023-03-20T22:39:22.111Z,30.52
2023-03-20T22:46:45.698Z,30.50
2023-03-20T22:50:40.312Z,30.53
2023-03-20T22:54:39.328Z,30.47
2023-03-20T22:58:39.229Z,30.53
2023-03-20T23:02:39.189Z,30.51
2023-03-20T23:06:39.238Z,30.46
2023-03-20T23:10:40.325Z,30.46
2023-03-20T23:14:45.747Z,30.43
2023-03-20T23:18:40.000Z,30.48
2023-03-20T23:22:39.060Z,30.46
2023-03-20T23:26:38.929Z,30.46
2023-03-20T23:30:46.665Z,30.44
2023-03-20T23:34:39.866Z,30.43
2023-03-20T23:38:40.224Z,30.42
2023-03-20T23:42:38.817Z,30.38
2023-03-20T23:46:38.790Z,30.40
2023-03-20T23:50:51.767Z,30.42
2023-03-20T23:54:39.757Z,30.40
2023-03-20T23:58:41.941Z,30.38
